Time;durP1;ratioP1;P1;durP2;ratioP2;P2;SDS_P1;SDS_P2;PMS_P1;PMS_P2;Temp;Humidity;BMP_temperature;BMP_pressure;BME280_temperature;BME280_humidity;BME280_pressure;Samples;Min_cycle;Max_cycle;Signal;HPM_P1;HPM_P2
2021/10/12 00:00:53;;;;;;;15.10;8.38;;;9.40;99.90;;;;;;2122759;27;20020;-69
2021/10/12 00:01:53;;;;;;;13.38;8.35;;;9.40;99.90;;;;;;2122343;27;20027;-70
2021/10/12 00:02:54;;;;;;;16.80;8.10;;;9.40;99.90;;;;;;2122713;27;20027;-70
2021/10/12 00:03:54;;;;;;;15.82;8.18;;;9.40;99.90;;;;;;2122993;27;20039;-69
2021/10/12 00:04:55;;;;;;;19.23;8.50;;;9.40;99.90;;;;;;2122787;27;20156;-70
2021/10/12 00:05:56;;;;;;;15.05;8.52;;;9.40;99.90;;;;;;2123009;27;20019;-69
2021/10/12 00:06:57;;;;;;;16.80;8.30;;;9.40;99.90;;;;;;2123119;27;20020;-69
2021/10/12 00:07:58;;;;;;;15.82;7.93;;;9.40;99.90;;;;;;2122887;27;20394;-69
2021/10/12 00:08:59;;;;;;;15.88;8.57;;;9.40;99.90;;;;;;2122221;27;20023;-70
2021/10/12 00:09:59;;;;;;;11.70;7.45;;;9.40;99.90;;;;;;2122788;27;20031;-70
2021/10/12 00:11:00;;;;;;;14.05;7.95;;;9.40;99.90;;;;;;2122627;27;20019;-69
2021/10/12 00:12:01;;;;;;;10.55;7.13;;;9.40;99.90;;;;;;2122326;27;20038;-69
2021/10/12 00:13:02;;;;;;;17.20;8.20;;;9.40;99.90;;;;;;2122886;27;20019;-69
2021/10/12 00:14:03;;;;;;;17.10;8.60;;;9.40;99.90;;;;;;2122018;27;20019;-69
2021/10/12 00:15:05;;;;;;;16.50;9.05;;;9.40;99.90;;;;;;2122212;27;20086;-69
2021/10/12 00:16:06;;;;;;;12.65;8.07;;;9.40;99.90;;;;;;2122778;27;20022;-69
2021/10/12 00:17:06;;;;;;;13.13;8.05;;;9.30;99.90;;;;;;2122472;27;20474;-69
2021/10/12 00:18:07;;;;;;;17.92;9.07;;;9.30;99.90;;;;;;2122792;27;20565;-69
2021/10/12 00:19:07;;;;;;;16.67;8.57;;;9.30;99.90;;;;;;2122171;27;20054;-68
2021/10/12 00:20:09;;;;;;;14.30;8.25;;;9.30;99.90;;;;;;2122686;27;20076;-69
2021/10/12 00:21:10;;;;;;;17.85;8.85;;;9.30;99.90;;;;;;2122736;27;20031;-69
2021/10/12 00:22:11;;;;;;;20.38;9.68;;;9.30;99.90;;;;;;2122393;27;20046;-68
2021/10/12 00:23:11;;;;;;;17.10;9.15;;;9.30;99.90;;;;;;2122721;27;20054;-68
2021/10/12 00:24:12;;;;;;;12.73;8.32;;;9.30;99.90;;;;;;2122512;27;20486;-68
2021/10/12 00:25:13;;;;;;;15.18;8.60;;;9.30;99.90;;;;;;2122389;27;20027;-69
2021/10/12 00:26:13;;;;;;;17.95;8.50;;;9.30;99.90;;;;;;2123079;27;20031;-68
2021/10/12 00:27:14;;;;;;;13.27;7.95;;;9.20;99.90;;;;;;2122643;27;20035;-68
2021/10/12 00:28:14;;;;;;;13.23;8.18;;;9.20;99.90;;;;;;2122849;27;20098;-68
2021/10/12 00:29:15;;;;;;;15.95;8.55;;;9.20;99.90;;;;;;2122100;27;20035;-68
2021/10/12 00:30:16;;;;;;;17.58;8.65;;;9.20;99.90;;;;;;2122549;27;20062;-68
2021/10/12 00:31:16;;;;;;;14.63;8.70;;;9.20;99.90;;;;;;2122465;27;20019;-69
2021/10/12 00:32:17;;;;;;;17.90;9.40;;;9.20;99.90;;;;;;2122631;27;20115;-68
2021/10/12 00:33:18;;;;;;;15.50;8.77;;;9.20;99.90;;;;;;2122006;27;20202;-69
2021/10/12 00:34:19;;;;;;;15.95;9.00;;;9.20;99.90;;;;;;2122019;27;20038;-68
2021/10/12 00:35:19;;;;;;;18.27;9.38;;;9.20;99.90;;;;;;2122781;27;20024;-68
2021/10/12 00:36:21;;;;;;;13.38;9.07;;;9.20;99.90;;;;;;2122540;27;20022;-68
2021/10/12 00:37:21;;;;;;;20.15;9.98;;;9.20;99.90;;;;;;2122523;27;20062;-68
2021/10/12 00:38:22;;;;;;;19.15;10.10;;;9.20;99.90;;;;;;2122516;27;20390;-68
2021/10/12 00:39:22;;;;;;;15.82;9.48;;;9.20;99.90;;;;;;2121888;27;20016;-69
2021/10/12 00:40:23;;;;;;;14.48;9.23;;;9.20;99.90;;;;;;2122371;27;20055;-68
2021/10/12 00:41:24;;;;;;;20.77;11.35;;;9.20;99.90;;;;;;2122405;27;20110;-68
2021/10/12 00:42:25;;;;;;;23.85;10.90;;;9.20;99.90;;;;;;2122787;27;20099;-68
2021/10/12 00:43:27;;;;;;;20.95;10.65;;;9.20;99.90;;;;;;2121949;27;20504;-68
2021/10/12 00:44:28;;;;;;;20.02;11.38;;;9.20;99.90;;;;;;2121641;27;20027;-68
2021/10/12 00:45:30;;;;;;;15.75;10.57;;;9.20;99.90;;;;;;2122682;27;20034;-68
2021/10/12 00:46:30;;;;;;;18.75;11.10;;;9.20;99.90;;;;;;2122619;27;20638;-68
2021/10/12 00:47:31;;;;;;;26.75;12.57;;;9.10;99.90;;;;;;2122515;27;20083;-68
2021/10/12 00:48:33;;;;;;;22.27;12.25;;;9.10;99.90;;;;;;2122198;27;20016;-69
2021/10/12 00:49:34;;;;;;;24.50;11.85;;;9.10;99.90;;;;;;2122520;27;20035;-68
2021/10/12 00:50:37;;;;;;;20.20;11.63;;;9.10;99.90;;;;;;2122570;27;20124;-69
2021/10/12 00:51:38;;;;;;;24.65;11.75;;;9.10;99.90;;;;;;2122125;27;20055;-69
2021/10/12 00:52:38;;;;;;;27.70;13.63;;;9.10;99.90;;;;;;2122380;27;20517;-68
2021/10/12 00:53:40;;;;;;;19.70;12.60;;;9.10;99.90;;;;;;2121736;27;20531;-67
2021/10/12 00:54:41;;;;;;;21.15;13.02;;;9.10;99.90;;;;;;2121528;27;20031;-68
2021/10/12 00:55:41;;;;;;;27.75;14.18;;;9.10;99.90;;;;;;2122580;27;20033;-68
2021/10/12 00:56:42;;;;;;;26.70;13.23;;;9.10;99.90;;;;;;2122682;27;20067;-68
2021/10/12 00:57:43;;;;;;;23.25;13.63;;;9.10;99.90;;;;;;2121776;27;20015;-68
2021/10/12 00:58:44;;;;;;;21.30;13.23;;;9.10;99.90;;;;;;2121360;27;20631;-68
2021/10/12 00:59:45;;;;;;;22.88;13.15;;;9.00;99.90;;;;;;2122490;27;20027;-68
2021/10/12 01:00:46;;;;;;;17.90;12.43;;;9.00;99.90;;;;;;2122013;27;20071;-68
2021/10/12 01:01:47;;;;;;;20.95;13.15;;;9.00;99.90;;;;;;2121838;27;20129;-68
2021/10/12 01:02:48;;;;;;;25.25;13.85;;;9.00;99.90;;;;;;2122590;27;20541;-68
2021/10/12 01:03:48;;;;;;;28.98;14.32;;;9.00;99.90;;;;;;2122440;27;20023;-69
2021/10/12 01:04:49;;;;;;;31.20;14.80;;;8.90;99.90;;;;;;2122271;27;20577;-69
2021/10/12 01:05:49;;;;;;;29.27;14.40;;;8.90;99.90;;;;;;2122118;27;20386;-68
2021/10/12 01:06:50;;;;;;;23.30;13.63;;;8.90;99.90;;;;;;2122389;27;20031;-68
2021/10/12 01:07:50;;;;;;;29.40;14.20;;;8.90;99.90;;;;;;2122316;27;20063;-68
2021/10/12 01:08:51;;;;;;;22.73;13.85;;;8.80;99.90;;;;;;2121934;27;20052;-68
2021/10/12 01:09:55;;;;;;;26.02;14.50;;;8.80;99.90;;;;;;2122072;27;20023;-68
2021/10/12 01:10:56;;;;;;;26.40;14.32;;;8.70;99.90;;;;;;2122350;27;20386;-68
2021/10/12 01:11:58;;;;;;;26.92;14.05;;;8.80;99.90;;;;;;2122082;27;20036;-68
2021/10/12 01:13:01;;;;;;;24.95;14.38;;;8.70;99.90;;;;;;2122258;27;20037;-68
2021/10/12 01:14:02;;;;;;;31.85;15.50;;;8.70;99.90;;;;;;2122154;27;20408;-68
2021/10/12 01:15:07;;;;;;;34.58;15.13;;;8.60;99.90;;;;;;2122419;27;20505;-68
2021/10/12 01:16:08;;;;;;;30.13;14.70;;;8.70;99.90;;;;;;2122619;27;20462;-68
2021/10/12 01:17:09;;;;;;;25.30;13.57;;;8.60;99.90;;;;;;2122362;27;20026;-68
2021/10/12 01:18:13;;;;;;;24.65;13.73;;;8.60;99.90;;;;;;2122500;27;20868;-68
2021/10/12 01:19:16;;;;;;;24.48;13.15;;;8.60;99.90;;;;;;2122002;27;20023;-68
2021/10/12 01:20:17;;;;;;;27.73;14.38;;;8.50;99.90;;;;;;2121638;27;20102;-68
2021/10/12 01:21:17;;;;;;;27.67;14.75;;;8.50;99.90;;;;;;2121450;27;20027;-68
2021/10/12 01:22:18;;;;;;;26.17;14.30;;;8.50;99.90;;;;;;2122545;27;20054;-68
2021/10/12 01:23:19;;;;;;;27.90;14.93;;;8.50;99.90;;;;;;2122137;27;20027;-68
2021/10/12 01:24:20;;;;;;;28.83;14.77;;;8.50;99.90;;;;;;2122366;27;20030;-68
2021/10/12 01:25:21;;;;;;;22.60;13.48;;;8.50;99.90;;;;;;2122585;27;20046;-68
2021/10/12 01:26:22;;;;;;;25.58;13.68;;;8.50;99.90;;;;;;2122420;27;20088;-68
2021/10/12 01:27:23;;;;;;;31.38;14.10;;;8.40;99.90;;;;;;2122357;27;20035;-67
2021/10/12 01:28:23;;;;;;;24.30;13.13;;;8.40;99.90;;;;;;2122258;27;20030;-68
2021/10/12 01:29:24;;;;;;;29.58;15.25;;;8.40;99.90;;;;;;2121615;27;20039;-68
2021/10/12 01:30:25;;;;;;;28.00;14.13;;;8.40;99.90;;;;;;2122321;27;20766;-68
2021/10/12 01:31:27;;;;;;;27.60;14.50;;;8.40;99.90;;;;;;2122061;27;20027;-68
2021/10/12 01:32:28;;;;;;;25.95;14.48;;;8.40;99.90;;;;;;2122360;27;20046;-68
2021/10/12 01:33:28;;;;;;;39.40;16.00;;;8.40;99.90;;;;;;2122195;27;20121;-68
2021/10/12 01:34:29;;;;;;;26.30;14.65;;;8.40;99.90;;;;;;2122010;27;20034;-68
2021/10/12 01:35:29;;;;;;;22.20;13.02;;;8.40;99.90;;;;;;2122191;27;20038;-68
2021/10/12 01:36:30;;;;;;;26.50;13.45;;;8.30;99.90;;;;;;2121665;27;20031;-68
2021/10/12 01:37:31;;;;;;;22.90;13.43;;;8.30;99.90;;;;;;2122600;27;20043;-68
2021/10/12 01:38:32;;;;;;;22.00;13.20;;;8.30;99.90;;;;;;2122830;27;20049;-68
2021/10/12 01:39:32;;;;;;;30.23;14.45;;;8.30;99.90;;;;;;2122027;27;20113;-68
2021/10/12 01:40:33;;;;;;;36.50;15.07;;;8.30;99.90;;;;;;2121349;27;20015;-68
2021/10/12 01:41:34;;;;;;;41.17;15.60;;;8.30;99.90;;;;;;2112560;28;20027;-68
2021/10/12 01:42:35;;;;;;;38.90;15.63;;;8.30;99.90;;;;;;2121511;27;20022;-68
2021/10/12 01:43:36;;;;;;;44.15;16.20;;;8.30;99.90;;;;;;2122178;27;20386;-68
2021/10/12 01:44:38;;;;;;;45.75;17.35;;;8.20;99.90;;;;;;2121303;27;20034;-68
2021/10/12 01:45:38;;;;;;;37.60;15.88;;;8.20;99.90;;;;;;2121691;27;20147;-68
2021/10/12 01:46:40;;;;;;;27.00;14.55;;;8.30;99.90;;;;;;2121931;27;20109;-68
2021/10/12 01:47:41;;;;;;;28.42;14.20;;;8.30;99.90;;;;;;2122143;27;20071;-68
2021/10/12 01:48:42;;;;;;;25.65;13.70;;;8.20;99.90;;;;;;2121596;27;20027;-68
2021/10/12 01:49:42;;;;;;;25.38;13.20;;;8.20;99.90;;;;;;2121978;27;20019;-68
2021/10/12 01:50:43;;;;;;;39.38;15.07;;;8.20;99.90;;;;;;2122053;27;20019;-68
2021/10/12 01:51:44;;;;;;;41.30;15.70;;;8.20;99.90;;;;;;2121900;28;20046;-68
2021/10/12 01:52:44;;;;;;;27.85;13.98;;;8.20;99.90;;;;;;2122162;28;20478;-68
2021/10/12 01:53:45;;;;;;;24.20;12.95;;;8.10;99.90;;;;;;2122272;28;20047;-67
2021/10/12 01:54:46;;;;;;;21.60;12.50;;;8.20;99.90;;;;;;2122040;28;20031;-68
2021/10/12 01:55:47;;;;;;;19.92;11.48;;;8.10;99.90;;;;;;2121759;28;20445;-68
2021/10/12 01:56:49;;;;;;;16.02;11.18;;;8.10;99.90;;;;;;2122042;27;20032;-68
2021/10/12 01:57:50;;;;;;;17.50;10.88;;;8.10;99.90;;;;;;2122150;27;20020;-67
2021/10/12 01:58:51;;;;;;;18.17;11.02;;;8.10;99.90;;;;;;2121679;28;20035;-67
2021/10/12 01:59:52;;;;;;;16.13;10.50;;;8.00;99.90;;;;;;2112792;28;20139;-67
2021/10/12 02:00:52;;;;;;;14.60;10.10;;;8.00;99.90;;;;;;2113166;28;20065;-67
2021/10/12 02:01:53;;;;;;;15.55;9.77;;;8.00;99.90;;;;;;2121087;28;20482;-68
2021/10/12 02:02:53;;;;;;;14.90;9.25;;;7.90;99.90;;;;;;2112849;28;20027;-68
2021/10/12 02:03:54;;;;;;;13.02;9.02;;;7.90;99.90;;;;;;2121533;28;20027;-67
2021/10/12 02:04:54;;;;;;;14.05;9.48;;;7.90;99.90;;;;;;2121742;28;20031;-67
2021/10/12 02:05:55;;;;;;;14.45;9.15;;;7.90;99.90;;;;;;2122166;28;20042;-67
2021/10/12 02:06:56;;;;;;;11.93;8.88;;;7.90;99.90;;;;;;2122015;28;20031;-67
2021/10/12 02:07:56;;;;;;;14.00;8.55;;;7.80;99.90;;;;;;2122254;28;20034;-67
2021/10/12 02:08:57;;;;;;;14.05;8.70;;;7.80;99.90;;;;;;2121610;28;20043;-67
2021/10/12 02:09:57;;;;;;;12.68;8.52;;;7.80;99.90;;;;;;2121640;28;20035;-68
2021/10/12 02:10:58;;;;;;;13.10;8.93;;;7.80;99.90;;;;;;2122025;28;20034;-68
2021/10/12 02:11:58;;;;;;;14.65;8.90;;;7.70;99.90;;;;;;2120951;28;20478;-67
2021/10/12 02:12:59;;;;;;;13.68;8.77;;;7.70;99.90;;;;;;2121479;28;20406;-68
2021/10/12 02:14:00;;;;;;;16.40;9.10;;;7.70;99.90;;;;;;2121841;28;20043;-68
2021/10/12 02:15:00;;;;;;;14.65;8.90;;;7.70;99.90;;;;;;2121939;27;20031;-67
2021/10/12 02:16:01;;;;;;;12.00;8.50;;;7.70;99.90;;;;;;2122168;27;20737;-67
2021/10/12 02:17:02;;;;;;;13.73;8.98;;;7.70;99.90;;;;;;2121856;28;20125;-67
2021/10/12 02:18:03;;;;;;;13.98;9.25;;;7.70;99.90;;;;;;2121769;28;20098;-68
2021/10/12 02:19:03;;;;;;;14.88;8.73;;;7.70;99.90;;;;;;2121393;27;20429;-68
2021/10/12 02:20:06;;;;;;;15.20;9.98;;;7.60;99.90;;;;;;2122224;27;20028;-69
2021/10/12 02:21:07;;;;;;;13.02;9.38;;;7.60;99.90;;;;;;2121285;27;20031;-68
2021/10/12 02:22:07;;;;;;;16.25;9.38;;;7.60;99.90;;;;;;2121282;28;20020;-67
2021/10/12 02:23:08;;;;;;;15.98;9.57;;;7.60;99.90;;;;;;2122155;27;20027;-68
2021/10/12 02:24:09;;;;;;;16.70;9.15;;;7.60;99.90;;;;;;2121818;28;20039;-67
2021/10/12 02:25:10;;;;;;;17.23;9.95;;;7.60;99.90;;;;;;2122114;27;20482;-68
2021/10/12 02:26:11;;;;;;;15.85;9.05;;;7.60;99.90;;;;;;2122115;27;20038;-67
2021/10/12 02:27:11;;;;;;;16.60;9.57;;;7.60;99.90;;;;;;2122284;28;20024;-68
2021/10/12 02:28:12;;;;;;;15.02;9.48;;;7.70;99.90;;;;;;2122083;28;20019;-67
2021/10/12 02:29:13;;;;;;;16.85;9.85;;;7.60;99.90;;;;;;2121584;28;20584;-67
2021/10/12 02:30:14;;;;;;;13.68;8.80;;;7.70;99.90;;;;;;2122270;27;20065;-68
2021/10/12 02:31:14;;;;;;;17.27;9.77;;;7.70;99.90;;;;;;2121480;27;20049;-67
2021/10/12 02:32:16;;;;;;;18.55;10.32;;;7.70;99.90;;;;;;2121861;27;20031;-68
2021/10/12 02:33:17;;;;;;;17.52;9.95;;;7.70;99.90;;;;;;2122091;27;20378;-67
2021/10/12 02:34:17;;;;;;;13.02;8.95;;;7.70;99.90;;;;;;2121931;28;20126;-68
2021/10/12 02:35:18;;;;;;;16.98;9.60;;;7.70;99.90;;;;;;2121993;27;20035;-68
2021/10/12 02:36:18;;;;;;;15.48;9.07;;;7.60;99.90;;;;;;2122049;28;20039;-68
2021/10/12 02:37:19;;;;;;;13.82;9.20;;;7.60;99.90;;;;;;2122070;27;20114;-68
2021/10/12 02:38:20;;;;;;;14.48;9.40;;;7.60;99.90;;;;;;2121850;27;20019;-68
2021/10/12 02:39:21;;;;;;;16.17;8.65;;;7.60;99.90;;;;;;2121339;28;20072;-69
2021/10/12 02:40:22;;;;;;;14.02;8.98;;;7.60;99.90;;;;;;2121869;27;20019;-68
2021/10/12 02:41:22;;;;;;;13.52;9.15;;;7.50;99.90;;;;;;2121626;27;20027;-69
2021/10/12 02:42:23;;;;;;;14.38;8.35;;;7.50;99.90;;;;;;2121844;28;20027;-68
2021/10/12 02:43:23;;;;;;;15.93;9.45;;;7.50;99.90;;;;;;2121797;28;20474;-68
2021/10/12 02:44:24;;;;;;;13.38;8.13;;;7.50;99.90;;;;;;2121917;28;20035;-68
2021/10/12 02:45:25;;;;;;;13.38;8.40;;;7.50;99.90;;;;;;2121775;28;20041;-68
2021/10/12 02:46:26;;;;;;;14.02;8.50;;;7.50;99.90;;;;;;2121758;28;20027;-69
2021/10/12 02:47:26;;;;;;;14.00;8.93;;;7.50;99.90;;;;;;2122039;28;20745;-68
2021/10/12 02:48:27;;;;;;;14.63;8.68;;;7.50;99.90;;;;;;2122666;27;20039;-68
2021/10/12 02:49:27;;;;;;;14.27;8.77;;;7.50;99.90;;;;;;2122402;27;20039;-68
2021/10/12 02:50:28;;;;;;;12.85;8.43;;;7.40;99.90;;;;;;2123600;27;20031;-68
2021/10/12 02:51:29;;;;;;;14.23;8.93;;;7.40;99.90;;;;;;2123069;27;20062;-68
2021/10/12 02:52:29;;;;;;;13.48;8.57;;;7.50;99.90;;;;;;2123316;27;20027;-68
2021/10/12 02:53:30;;;;;;;14.35;8.48;;;7.50;99.90;;;;;;2123499;27;20042;-69
2021/10/12 02:54:31;;;;;;;13.00;8.65;;;7.50;99.90;;;;;;2122395;27;20695;-68
2021/10/12 02:55:31;;;;;;;17.17;9.18;;;7.50;99.90;;;;;;2122797;27;20832;-68
2021/10/12 02:56:32;;;;;;;18.17;9.75;;;7.50;99.90;;;;;;2123446;27;20084;-68
2021/10/12 02:57:33;;;;;;;25.13;11.68;;;7.50;99.90;;;;;;2123581;27;20411;-69
2021/10/12 02:58:34;;;;;;;24.60;11.23;;;7.50;99.90;;;;;;2122420;27;20035;-68
2021/10/12 02:59:34;;;;;;;19.27;11.65;;;7.50;99.90;;;;;;2122713;27;20023;-68
2021/10/12 03:00:35;;;;;;;25.45;12.98;;;7.60;99.90;;;;;;2123434;27;20023;-68
2021/10/12 03:01:36;;;;;;;19.23;11.85;;;7.60;99.90;;;;;;2123206;27;20583;-68
2021/10/12 03:02:37;;;;;;;16.77;10.88;;;7.60;99.90;;;;;;2123410;27;20096;-69
2021/10/12 03:03:37;;;;;;;17.63;10.07;;;7.60;99.90;;;;;;2123434;27;20023;-68
2021/10/12 03:04:38;;;;;;;18.85;11.05;;;7.70;99.90;;;;;;2123086;27;20031;-68
2021/10/12 03:05:44;;;;;;;17.30;10.63;;;7.70;99.90;;;;;;2123594;27;20042;-68
2021/10/12 03:06:44;;;;;;;21.50;10.77;;;7.70;99.90;;;;;;2123170;27;20023;-69
2021/10/12 03:07:45;;;;;;;20.02;10.85;;;7.70;99.90;;;;;;2123418;27;20478;-69
2021/10/12 03:08:46;;;;;;;15.98;10.20;;;7.70;99.90;;;;;;2122714;27;20023;-69
2021/10/12 03:09:46;;;;;;;17.13;10.40;;;7.70;99.90;;;;;;2123175;27;20455;-69
2021/10/12 03:10:47;;;;;;;18.88;10.00;;;7.80;99.90;;;;;;2123475;27;20052;-69
2021/10/12 03:11:48;;;;;;;23.55;11.88;;;7.80;99.90;;;;;;2123100;27;20049;-69
2021/10/12 03:12:48;;;;;;;17.48;10.10;;;7.80;99.90;;;;;;2122690;27;20067;-69
2021/10/12 03:13:49;;;;;;;14.73;10.43;;;7.80;99.90;;;;;;2122652;27;20030;-69
2021/10/12 03:14:49;;;;;;;18.10;9.80;;;7.80;99.90;;;;;;2123046;27;20035;-69
2021/10/12 03:15:50;;;;;;;14.95;9.55;;;7.80;99.90;;;;;;2123208;27;20044;-69
2021/10/12 03:16:51;;;;;;;16.67;9.52;;;7.80;99.90;;;;;;2123118;27;20033;-69
2021/10/12 03:17:51;;;;;;;14.95;9.05;;;7.70;99.90;;;;;;2123305;27;20114;-69
2021/10/12 03:18:53;;;;;;;17.55;8.80;;;7.70;99.90;;;;;;2122040;27;20078;-69
2021/10/12 03:19:53;;;;;;;14.60;8.73;;;7.70;99.90;;;;;;2122697;27;20039;-68
2021/10/12 03:20:54;;;;;;;12.50;9.10;;;7.60;99.90;;;;;;2123070;27;20023;-69
2021/10/12 03:21:59;;;;;;;15.98;8.57;;;7.60;99.90;;;;;;2122796;27;20027;-69
2021/10/12 03:22:59;;;;;;;13.93;8.90;;;7.60;99.90;;;;;;2123134;27;20023;-68
2021/10/12 03:24:00;;;;;;;16.23;9.38;;;7.50;99.90;;;;;;2122622;27;20023;-68
2021/10/12 03:25:01;;;;;;;21.83;10.88;;;7.50;99.90;;;;;;2122514;27;20509;-68
2021/10/12 03:26:02;;;;;;;21.50;11.38;;;7.50;99.90;;;;;;2123328;27;20026;-68
2021/10/12 03:27:02;;;;;;;20.00;11.00;;;7.50;99.90;;;;;;2123272;27;20450;-68
2021/10/12 03:28:03;;;;;;;17.35;10.80;;;7.50;99.90;;;;;;2123061;27;20375;-68
2021/10/12 03:29:05;;;;;;;18.05;10.88;;;7.50;99.90;;;;;;2122690;27;20027;-68
2021/10/12 03:30:06;;;;;;;20.00;10.93;;;7.50;99.90;;;;;;2122565;27;20031;-68
2021/10/12 03:31:07;;;;;;;19.13;11.00;;;7.40;99.90;;;;;;2122614;27;20106;-68
2021/10/12 03:32:08;;;;;;;19.35;10.85;;;7.50;99.90;;;;;;2122844;27;20047;-68
2021/10/12 03:33:08;;;;;;;17.52;10.07;;;7.50;99.90;;;;;;2123190;27;20102;-68
2021/10/12 03:34:09;;;;;;;15.70;10.30;;;7.40;99.90;;;;;;2123068;27;20390;-68
2021/10/12 03:35:10;;;;;;;19.38;10.52;;;7.40;99.90;;;;;;2123389;27;20038;-68
2021/10/12 03:36:16;;;;;;;15.40;9.85;;;7.40;99.90;;;;;;2123569;27;20027;-68
2021/10/12 03:37:17;;;;;;;18.67;10.00;;;7.40;99.90;;;;;;2123887;27;20028;-68
2021/10/12 03:38:17;;;;;;;15.73;9.82;;;7.30;99.90;;;;;;2122790;27;20119;-68
2021/10/12 03:39:18;;;;;;;21.88;10.98;;;7.30;99.90;;;;;;2122518;27;20436;-68
2021/10/12 03:40:19;;;;;;;17.40;10.73;;;7.30;99.90;;;;;;2123719;27;20106;-68
2021/10/12 03:41:20;;;;;;;16.80;10.02;;;7.30;99.90;;;;;;2123248;27;20023;-68
2021/10/12 03:42:20;;;;;;;16.80;10.23;;;7.30;99.90;;;;;;2123470;27;20344;-68
2021/10/12 03:43:23;;;;;;;15.45;10.05;;;7.30;99.90;;;;;;2123439;27;20106;-68
2021/10/12 03:44:24;;;;;;;15.07;9.63;;;7.20;99.90;;;;;;2123324;27;20027;-68
2021/10/12 03:45:25;;;;;;;16.30;9.60;;;7.20;99.90;;;;;;2123033;27;20512;-68
2021/10/12 03:46:25;;;;;;;17.48;10.13;;;7.20;99.90;;;;;;2123187;27;20054;-68
2021/10/12 03:47:26;;;;;;;13.77;9.27;;;7.20;99.90;;;;;;2123118;27;20080;-68
2021/10/12 03:48:26;;;;;;;19.27;11.27;;;7.20;99.90;;;;;;2123029;27;20035;-68
2021/10/12 03:49:27;;;;;;;21.25;11.70;;;7.20;99.90;;;;;;2122360;27;20445;-68
2021/10/12 03:50:28;;;;;;;16.55;10.68;;;7.10;99.90;;;;;;2123242;27;20035;-68
2021/10/12 03:51:28;;;;;;;17.42;10.70;;;7.10;99.90;;;;;;2122784;27;20031;-68
2021/10/12 03:52:29;;;;;;;16.50;10.57;;;7.10;99.90;;;;;;2122988;27;20035;-68
2021/10/12 03:53:29;;;;;;;20.40;11.27;;;7.10;99.90;;;;;;2122890;27;20031;-68
2021/10/12 03:54:30;;;;;;;17.67;11.15;;;7.10;99.90;;;;;;2123176;27;20109;-68
2021/10/12 03:55:30;;;;;;;17.85;10.88;;;7.10;99.90;;;;;;2123219;27;20075;-68
2021/10/12 03:56:31;;;;;;;17.45;10.57;;;7.10;99.90;;;;;;2123270;27;20030;-68
2021/10/12 03:57:32;;;;;;;17.48;10.50;;;7.10;99.90;;;;;;2123240;27;20023;-68
2021/10/12 03:58:33;;;;;;;14.95;9.82;;;7.00;99.90;;;;;;2122608;27;20015;-68
2021/10/12 03:59:33;;;;;;;16.05;9.73;;;7.00;99.90;;;;;;2122461;27;20401;-68
2021/10/12 04:00:34;;;;;;;17.52;10.05;;;7.00;99.90;;;;;;2122936;27;20031;-68
2021/10/12 04:01:34;;;;;;;14.95;9.27;;;7.00;99.90;;;;;;2122557;27;20027;-68
2021/10/12 04:02:35;;;;;;;17.23;9.98;;;7.00;99.90;;;;;;2122999;27;20011;-68
2021/10/12 04:03:36;;;;;;;20.75;10.63;;;7.00;99.90;;;;;;2122069;27;20051;-68
2021/10/12 04:04:36;;;;;;;19.95;11.10;;;7.00;99.90;;;;;;2121994;27;20066;-68
2021/10/12 04:05:37;;;;;;;16.65;10.63;;;7.00;99.90;;;;;;2122692;27;20031;-68
2021/10/12 04:06:37;;;;;;;17.58;10.45;;;6.90;99.90;;;;;;2123105;27;20033;-68
2021/10/12 04:07:38;;;;;;;18.15;11.50;;;6.90;99.90;;;;;;2122590;27;20055;-69
2021/10/12 04:08:38;;;;;;;16.95;10.63;;;6.90;99.90;;;;;;2122539;27;20061;-68
2021/10/12 04:09:39;;;;;;;17.77;11.05;;;6.90;99.90;;;;;;2122710;27;20065;-68
2021/10/12 04:10:40;;;;;;;18.55;11.10;;;6.90;99.90;;;;;;2122712;27;20035;-68
2021/10/12 04:11:41;;;;;;;15.15;10.70;;;6.90;99.90;;;;;;2122389;27;20023;-68
2021/10/12 04:12:42;;;;;;;19.13;11.18;;;6.90;99.90;;;;;;2122781;27;20053;-68
2021/10/12 04:13:42;;;;;;;17.67;10.30;;;6.90;99.90;;;;;;2122900;27;20031;-68
2021/10/12 04:14:43;;;;;;;22.45;11.93;;;6.80;99.90;;;;;;2122620;27;20038;-69
2021/10/12 04:15:43;;;;;;;19.80;11.93;;;6.90;99.90;;;;;;2122711;27;20026;-68
2021/10/12 04:16:44;;;;;;;18.92;11.98;;;6.90;99.90;;;;;;2122783;27;20061;-68
2021/10/12 04:17:44;;;;;;;22.52;12.77;;;6.90;99.90;;;;;;2122512;27;20027;-68
2021/10/12 04:18:45;;;;;;;24.50;13.05;;;6.90;99.90;;;;;;2121665;27;20141;-68
2021/10/12 04:19:46;;;;;;;21.30;12.95;;;7.00;99.90;;;;;;2121921;27;20739;-68
2021/10/12 04:20:46;;;;;;;18.75;12.13;;;7.00;99.90;;;;;;2122914;27;20440;-68
2021/10/12 04:21:47;;;;;;;23.33;12.93;;;7.00;99.90;;;;;;2121868;27;20027;-68
2021/10/12 04:22:47;;;;;;;22.40;12.68;;;7.10;99.90;;;;;;2122396;27;20047;-68
2021/10/12 04:23:48;;;;;;;22.33;12.18;;;7.10;99.90;;;;;;2122698;27;20110;-68
2021/10/12 04:24:49;;;;;;;22.83;12.88;;;7.10;99.90;;;;;;2122640;27;20035;-68
2021/10/12 04:25:50;;;;;;;22.63;12.05;;;7.10;99.90;;;;;;2122080;27;20023;-69
2021/10/12 04:26:51;;;;;;;19.90;12.07;;;7.10;99.90;;;;;;2122124;27;20026;-68
2021/10/12 04:27:52;;;;;;;22.60;11.95;;;7.10;99.90;;;;;;2122678;27;20023;-69
2021/10/12 04:28:53;;;;;;;23.52;12.70;;;7.20;99.90;;;;;;2122074;27;20027;-68
2021/10/12 04:29:53;;;;;;;30.45;14.75;;;7.10;99.90;;;;;;2122639;27;20515;-68
2021/10/12 04:30:54;;;;;;;40.90;18.58;;;7.10;99.90;;;;;;2122771;27;20053;-68
2021/10/12 04:31:55;;;;;;;43.00;18.58;;;7.20;99.90;;;;;;2121926;27;20100;-68
2021/10/12 04:32:55;;;;;;;32.22;16.77;;;7.20;99.90;;;;;;2122390;27;20097;-68
2021/10/12 04:33:56;;;;;;;33.05;16.50;;;7.20;99.90;;;;;;2122555;27;20027;-68
2021/10/12 04:34:56;;;;;;;38.38;18.17;;;7.20;99.90;;;;;;2122373;27;20034;-68
2021/10/12 04:35:57;;;;;;;35.45;18.13;;;7.20;99.90;;;;;;2122601;27;20034;-68
2021/10/12 04:36:58;;;;;;;41.63;18.85;;;7.20;99.90;;;;;;2122655;27;20023;-68
2021/10/12 04:37:59;;;;;;;51.05;21.40;;;7.20;99.90;;;;;;2122656;27;20091;-68
2021/10/12 04:38:59;;;;;;;56.65;21.60;;;7.20;99.90;;;;;;2121887;27;20092;-68
2021/10/12 04:40:00;;;;;;;67.82;23.65;;;7.20;99.90;;;;;;2121763;27;20084;-68
2021/10/12 04:41:02;;;;;;;59.63;23.17;;;7.30;99.90;;;;;;2121992;27;20035;-70
2021/10/12 04:42:04;;;;;;;55.88;21.50;;;7.30;99.90;;;;;;2122242;27;20494;-68
2021/10/12 04:43:07;;;;;;;40.60;19.48;;;7.20;99.90;;;;;;2122505;27;20066;-68
2021/10/12 04:44:09;;;;;;;38.28;18.55;;;7.20;99.90;;;;;;2122367;27;20077;-68
2021/10/12 04:45:10;;;;;;;39.13;18.13;;;7.20;99.90;;;;;;2121816;27;20095;-68
2021/10/12 04:46:13;;;;;;;44.78;20.63;;;7.20;99.90;;;;;;2121717;27;20034;-68
2021/10/12 04:47:14;;;;;;;52.58;21.92;;;7.20;99.90;;;;;;2122518;27;20101;-68
2021/10/12 04:48:15;;;;;;;48.75;20.85;;;7.20;99.90;;;;;;2122476;27;20023;-68
2021/10/12 04:49:16;;;;;;;45.25;19.92;;;7.20;99.90;;;;;;2121983;27;20485;-68
2021/10/12 04:50:16;;;;;;;38.03;18.42;;;7.20;99.90;;;;;;2121885;27;20023;-68
2021/10/12 04:51:17;;;;;;;45.53;19.67;;;7.20;99.90;;;;;;2121770;27;20506;-68
2021/10/12 04:52:17;;;;;;;39.13;20.02;;;7.20;99.90;;;;;;2122301;27;20439;-68
2021/10/12 04:53:19;;;;;;;54.10;23.70;;;7.20;99.90;;;;;;2122297;27;20036;-68
2021/10/12 04:54:20;;;;;;;58.88;24.52;;;7.20;99.90;;;;;;2122298;27;20031;-68
2021/10/12 04:55:20;;;;;;;54.65;23.70;;;7.30;99.90;;;;;;2122293;27;20474;-68
2021/10/12 04:56:22;;;;;;;46.25;22.25;;;7.30;99.90;;;;;;2122650;27;20446;-68
2021/10/12 04:57:22;;;;;;;46.80;22.13;;;7.20;99.90;;;;;;2121958;27;20031;-68
2021/10/12 04:58:23;;;;;;;40.22;20.35;;;7.20;99.90;;;;;;2113690;28;20023;-68
2021/10/12 04:59:23;;;;;;;42.28;20.45;;;7.20;99.90;;;;;;2121591;27;20051;-68
2021/10/12 05:00:24;;;;;;;38.65;19.52;;;7.20;99.90;;;;;;2122414;27;20031;-68
2021/10/12 05:01:25;;;;;;;47.53;21.52;;;7.20;99.90;;;;;;2122171;27;20027;-68
2021/10/12 05:02:26;;;;;;;50.72;21.45;;;7.20;99.90;;;;;;2122352;27;20046;-69
2021/10/12 05:03:26;;;;;;;66.10;24.00;;;7.20;99.90;;;;;;2122434;27;20083;-67
2021/10/12 05:04:27;;;;;;;53.60;23.90;;;7.20;99.90;;;;;;2122248;27;20027;-69
2021/10/12 05:05:28;;;;;;;62.22;24.85;;;7.20;99.90;;;;;;2122433;27;20023;-68
2021/10/12 05:06:28;;;;;;;77.78;27.17;;;7.20;99.90;;;;;;2122235;27;20027;-67
2021/10/12 05:07:29;;;;;;;60.95;24.63;;;7.30;99.90;;;;;;2122037;27;20115;-69
2021/10/12 05:08:30;;;;;;;48.42;24.23;;;7.30;99.90;;;;;;2122252;27;20130;-69
2021/10/12 05:09:31;;;;;;;46.72;21.67;;;7.20;99.90;;;;;;2121750;27;20042;-69
2021/10/12 05:10:32;;;;;;;44.95;21.67;;;7.30;99.90;;;;;;2122219;27;20031;-68
2021/10/12 05:11:32;;;;;;;50.30;22.60;;;7.30;99.90;;;;;;2121091;27;20493;-70
2021/10/12 05:12:33;;;;;;;49.65;22.52;;;7.30;99.90;;;;;;2122383;27;20023;-69
2021/10/12 05:13:34;;;;;;;42.55;20.77;;;7.30;99.90;;;;;;2122296;27;20067;-70
2021/10/12 05:14:35;;;;;;;39.20;19.38;;;7.30;99.90;;;;;;2122077;27;20042;-70